Time;durP1;ratioP1;P1;durP2;ratioP2;P2;SDS_P1;SDS_P2;PMS_P1;PMS_P2;Temp;Humidity;BMP_temperature;BMP_pressure;BME280_temperature;BME280_humidity;BME280_pressure;Samples;Min_cycle;Max_cycle;Signal;HPM_P1;HPM_P2
2024/04/08 00:01:56;;;;;;;9.32;3.97;;;16.50;93.60;;;;;;5061712;28;20021;-94
2024/04/08 00:04:22;;;;;;;46.30;6.25;;;16.40;95.30;;;;;;5061831;28;20643;-93
2024/04/08 00:06:47;;;;;;;8.90;4.75;;;16.30;95.90;;;;;;5060162;28;20018;-94
2024/04/08 00:09:14;;;;;;;11.30;5.30;;;16.20;96.30;;;;;;5072789;28;20032;-92
2024/04/08 00:11:40;;;;;;;8.52;4.43;;;16.20;95.60;;;;;;5062702;28;20087;-93
2024/04/08 00:14:06;;;;;;;9.52;5.07;;;16.20;95.90;;;;;;5061328;28;20096;-93
2024/04/08 00:16:31;;;;;;;9.52;4.53;;;16.20;96.80;;;;;;5063359;28;20029;-94
2024/04/08 00:18:57;;;;;;;9.93;3.75;;;16.20;96.20;;;;;;5062232;28;20021;-94
2024/04/08 00:21:23;;;;;;;7.35;4.30;;;16.20;96.30;;;;;;5062254;28;20029;-94
2024/04/08 00:23:48;;;;;;;7.35;3.70;;;16.30;96.10;;;;;;5044404;28;20031;-94
2024/04/08 00:26:14;;;;;;;6.72;4.57;;;16.30;95.70;;;;;;5061813;28;20465;-91
2024/04/08 00:28:40;;;;;;;8.05;3.75;;;16.20;95.90;;;;;;5061794;28;20136;-95
2024/04/08 00:31:10;;;;;;;10.93;6.78;;;16.20;95.30;;;;;;5061433;28;20039;-93
2024/04/08 00:33:36;;;;;;;9.77;4.03;;;16.20;95.70;;;;;;5062071;28;20025;-94
2024/04/08 00:36:06;;;;;;;6.40;3.72;;;16.10;96.30;;;;;;5044244;28;20471;-94
2024/04/08 00:38:31;;;;;;;11.65;4.90;;;16.10;95.90;;;;;;5062410;28;20033;-93
2024/04/08 00:40:58;;;;;;;5.55;3.72;;;16.20;95.50;;;;;;5061294;28;20081;-94
2024/04/08 00:43:24;;;;;;;5.68;4.22;;;16.20;96.10;;;;;;5066194;28;20040;-93
2024/04/08 00:45:51;;;;;;;10.25;5.32;;;16.10;96.80;;;;;;5069993;28;20067;-93
2024/04/08 00:48:17;;;;;;;7.32;4.35;;;16.00;97.80;;;;;;5065441;28;20013;-92
2024/04/08 00:50:51;;;;;;;7.13;3.95;;;15.90;98.00;;;;;;5063673;28;20052;-94
2024/04/08 00:53:17;;;;;;;12.55;4.32;;;15.80;98.70;;;;;;5062633;28;20342;-93
2024/04/08 00:55:44;;;;;;;9.13;3.83;;;15.90;98.50;;;;;;5063802;28;20055;-94
2024/04/08 00:58:11;;;;;;;7.63;5.22;;;15.80;99.60;;;;;;5063497;28;20025;-93
2024/04/08 01:00:40;;;;;;;6.30;3.45;;;15.80;99.90;;;;;;5062371;28;20017;-93
2024/04/08 01:03:07;;;;;;;12.38;4.57;;;15.80;99.40;;;;;;5063072;28;20129;-94
2024/04/08 01:05:34;;;;;;;6.47;4.50;;;15.80;99.20;;;;;;5063001;28;20029;-93
2024/04/08 01:08:01;;;;;;;7.18;4.75;;;15.80;98.50;;;;;;5065410;28;20021;-94
2024/04/08 01:10:29;;;;;;;7.13;3.70;;;15.80;98.80;;;;;;5065016;28;20025;-94
2024/04/08 01:12:55;;;;;;;7.38;3.72;;;15.80;99.60;;;;;;5063598;28;20029;-95
2024/04/08 01:15:24;;;;;;;10.93;4.32;;;15.70;99.60;;;;;;5062740;28;20047;-95
2024/04/08 01:17:50;;;;;;;6.70;3.90;;;15.70;99.30;;;;;;5046826;28;20021;-93
2024/04/08 01:20:18;;;;;;;10.63;4.78;;;15.70;99.30;;;;;;5063163;28;20032;-93
2024/04/08 01:22:47;;;;;;;10.80;5.30;;;15.80;98.60;;;;;;5062009;28;20048;-95
2024/04/08 01:25:13;;;;;;;11.27;4.95;;;15.70;98.80;;;;;;5061577;28;20021;-93
2024/04/08 01:27:39;;;;;;;10.40;4.63;;;15.80;98.40;;;;;;5064725;28;20025;-95
2024/04/08 01:30:05;;;;;;;5.57;3.97;;;15.70;98.70;;;;;;5064940;28;20075;-94
2024/04/08 01:32:31;;;;;;;7.75;4.00;;;15.50;99.90;;;;;;5067161;28;20059;-93
2024/04/08 01:34:56;;;;;;;8.30;4.15;;;15.40;99.90;;;;;;5062891;28;20033;-94
2024/04/08 01:37:22;;;;;;;9.32;5.53;;;15.30;99.90;;;;;;5061507;28;20017;-93
2024/04/08 01:39:53;;;;;;;6.13;4.78;;;15.40;99.90;;;;;;5061225;28;20029;-94
2024/04/08 01:42:22;;;;;;;10.07;4.32;;;15.40;99.90;;;;;;5061579;28;20033;-94
2024/04/08 01:44:47;;;;;;;7.90;4.28;;;15.40;99.90;;;;;;5061487;28;20059;-94
2024/04/08 01:47:13;;;;;;;9.50;4.80;;;15.50;99.90;;;;;;5046721;28;20487;-94
2024/04/08 01:49:39;;;;;;;8.15;4.55;;;15.50;99.90;;;;;;5067062;28;20061;-94
2024/04/08 01:52:06;;;;;;;8.90;4.65;;;15.60;99.80;;;;;;5065543;28;20028;-94
2024/04/08 01:54:32;;;;;;;7.18;4.22;;;15.60;99.60;;;;;;5066416;28;20135;-93
2024/04/08 01:56:58;;;;;;;7.68;4.43;;;15.60;99.60;;;;;;5049018;28;20049;-93
2024/04/08 01:59:23;;;;;;;7.97;4.05;;;15.70;99.10;;;;;;5048888;28;20059;-94
2024/04/08 02:01:49;;;;;;;8.02;4.38;;;15.60;99.20;;;;;;5066343;28;20021;-95
2024/04/08 02:04:15;;;;;;;10.57;4.47;;;15.60;99.30;;;;;;5066895;28;20053;-95
2024/04/08 02:06:41;;;;;;;10.52;5.60;;;15.60;98.80;;;;;;5051914;28;20021;-93
2024/04/08 02:09:08;;;;;;;8.07;4.93;;;15.60;98.40;;;;;;5052828;28;20059;-93
2024/04/08 02:11:33;;;;;;;11.40;4.82;;;15.70;99.00;;;;;;5049715;28;20029;-94
2024/04/08 02:13:59;;;;;;;7.05;4.25;;;15.60;99.60;;;;;;5068383;28;20063;-94
2024/04/08 02:16:25;;;;;;;11.20;4.32;;;15.70;99.40;;;;;;5072519;28;20040;-94
2024/04/08 02:18:51;;;;;;;9.95;5.05;;;15.70;98.70;;;;;;5074755;28;20037;-92
2024/04/08 02:21:17;;;;;;;9.32;5.40;;;15.80;98.50;;;;;;5057058;28;20036;-92
2024/04/08 02:23:44;;;;;;;9.50;5.05;;;15.80;98.70;;;;;;5062170;28;20048;-92
2024/04/08 02:26:10;;;;;;;9.75;4.30;;;15.80;98.30;;;;;;5058973;28;20047;-95
2024/04/08 02:28:36;;;;;;;9.48;5.40;;;15.70;98.30;;;;;;5070811;28;20028;-95
2024/04/08 02:31:03;;;;;;;12.27;4.93;;;15.70;99.20;;;;;;5060129;28;20029;-94
2024/04/08 02:33:28;;;;;;;7.78;5.20;;;15.50;99.90;;;;;;5052347;28;20025;-95
2024/04/08 02:36:01;;;;;;;10.02;5.28;;;15.50;99.90;;;;;;5066481;28;20048;-94
2024/04/08 02:38:27;;;;;;;7.43;5.50;;;15.50;99.90;;;;;;5064253;28;20021;-94
2024/04/08 02:40:53;;;;;;;11.38;5.13;;;15.50;99.90;;;;;;5067086;28;20021;-93
2024/04/08 02:43:18;;;;;;;7.22;4.45;;;15.50;99.90;;;;;;5064528;28;20104;-94
2024/04/08 02:45:44;;;;;;;10.25;5.25;;;15.50;99.90;;;;;;5048263;28;20031;-94
2024/04/08 02:48:10;;;;;;;11.65;4.93;;;15.40;99.90;;;;;;5047599;28;20029;-95
2024/04/08 02:50:35;;;;;;;9.93;5.20;;;15.40;99.90;;;;;;5065693;28;20052;-94
2024/04/08 02:53:01;;;;;;;12.70;5.35;;;15.30;99.90;;;;;;5066185;28;20106;-93
2024/04/08 02:55:27;;;;;;;9.88;4.65;;;15.30;99.90;;;;;;5045438;28;20032;-94
2024/04/08 02:57:52;;;;;;;8.68;4.50;;;15.20;99.90;;;;;;5069388;28;20036;-95
2024/04/08 03:00:19;;;;;;;10.77;5.07;;;15.20;99.90;;;;;;5067844;28;20029;-94
2024/04/08 03:02:46;;;;;;;7.80;4.75;;;15.20;99.90;;;;;;5067243;28;20028;-94
2024/04/08 03:05:12;;;;;;;9.32;4.13;;;15.30;99.90;;;;;;5064898;28;20017;-94
2024/04/08 03:07:37;;;;;;;11.82;6.35;;;15.30;99.90;;;;;;5067842;28;20052;-93
2024/04/08 03:10:05;;;;;;;8.90;5.35;;;15.30;99.90;;;;;;5048655;28;20383;-95
2024/04/08 03:12:31;;;;;;;13.77;4.65;;;15.40;99.90;;;;;;5053199;28;20043;-94
2024/04/08 03:14:57;;;;;;;9.93;5.05;;;15.40;99.90;;;;;;5066614;28;20033;-95
2024/04/08 03:17:23;;;;;;;9.50;4.85;;;15.50;99.90;;;;;;5063919;28;20047;-94
2024/04/08 03:19:57;;;;;;;9.27;5.13;;;15.50;99.80;;;;;;5048048;28;20032;-95
2024/04/08 03:22:24;;;;;;;6.20;4.43;;;15.50;99.40;;;;;;5047626;28;20021;-94
2024/04/08 03:24:49;;;;;;;9.15;4.85;;;15.50;99.50;;;;;;5067383;28;20029;-94
2024/04/08 03:27:16;;;;;;;10.27;4.50;;;15.40;99.60;;;;;;5064861;28;20112;-94
2024/04/08 03:29:41;;;;;;;11.27;5.43;;;15.40;99.80;;;;;;5060956;28;20029;-96
2024/04/08 03:32:07;;;;;;;12.68;7.00;;;15.30;99.90;;;;;;5046143;28;20024;-94
2024/04/08 03:34:35;;;;;;;13.63;8.48;;;15.30;99.90;;;;;;5065524;28;20435;-94
2024/04/08 03:37:01;;;;;;;10.90;5.68;;;15.30;99.90;;;;;;5047350;28;20025;-92
2024/04/08 03:39:27;;;;;;;7.43;4.57;;;15.20;99.90;;;;;;5061466;28;20028;-94
2024/04/08 03:41:53;;;;;;;9.32;5.28;;;15.20;99.90;;;;;;5062441;28;20025;-94
2024/04/08 03:44:19;;;;;;;10.95;5.05;;;15.20;99.90;;;;;;5062969;28;20082;-93
2024/04/08 03:46:44;;;;;;;6.25;4.35;;;15.10;99.90;;;;;;5063179;28;20069;-94
2024/04/08 03:49:10;;;;;;;8.65;4.57;;;15.00;99.90;;;;;;5046695;28;20032;-95
2024/04/08 03:51:36;;;;;;;8.00;5.25;;;14.80;99.90;;;;;;5063793;28;20091;-94
2024/04/08 03:54:03;;;;;;;7.13;4.15;;;14.80;99.90;;;;;;5047255;28;20033;-93
2024/04/08 03:56:28;;;;;;;7.72;4.97;;;14.80;99.90;;;;;;5056694;28;20059;-95
2024/04/08 03:58:54;;;;;;;9.13;5.15;;;14.70;99.90;;;;;;5074637;28;20021;-93
2024/04/08 04:01:20;;;;;;;10.18;5.10;;;14.70;99.90;;;;;;5068264;28;20100;-94
2024/04/08 04:03:46;;;;;;;12.88;5.13;;;14.70;99.90;;;;;;5063702;28;20036;-92
2024/04/08 04:06:12;;;;;;;8.05;4.55;;;14.70;99.90;;;;;;5067507;28;20037;-94
2024/04/08 04:08:37;;;;;;;8.98;5.03;;;14.70;99.90;;;;;;5069198;28;20025;-95
2024/04/08 04:11:03;;;;;;;10.18;6.30;;;14.70;99.90;;;;;;5068043;28;20031;-94
2024/04/08 04:13:29;;;;;;;8.85;5.53;;;14.80;99.90;;;;;;5067950;28;20076;-92
2024/04/08 04:15:55;;;;;;;8.27;4.30;;;14.80;99.90;;;;;;5062279;28;20029;-92
2024/04/08 04:18:20;;;;;;;10.07;5.57;;;14.80;99.90;;;;;;5048726;28;20040;-93
2024/04/08 04:20:46;;;;;;;11.55;5.55;;;14.70;99.90;;;;;;5071008;28;20028;-93
2024/04/08 04:23:16;;;;;;;7.72;5.30;;;14.70;99.90;;;;;;5080059;28;20446;-94
2024/04/08 04:25:42;;;;;;;13.90;5.97;;;14.60;99.90;;;;;;5069543;28;20024;-94
2024/04/08 04:28:08;;;;;;;8.65;5.25;;;14.70;99.90;;;;;;5048713;28;20040;-92
2024/04/08 04:30:34;;;;;;;9.68;5.88;;;14.70;99.90;;;;;;5070820;28;20092;-92
2024/04/08 04:33:03;;;;;;;13.02;6.90;;;14.70;99.90;;;;;;5073995;28;20017;-95
2024/04/08 04:35:29;;;;;;;10.75;5.35;;;14.80;99.90;;;;;;5075793;28;20036;-94
2024/04/08 04:37:55;;;;;;;9.38;5.07;;;14.70;99.90;;;;;;5063943;28;20033;-92
2024/04/08 04:40:21;;;;;;;9.40;4.68;;;14.80;99.90;;;;;;5077191;28;20059;-92
2024/04/08 04:42:47;;;;;;;9.75;5.40;;;14.70;99.90;;;;;;5071136;28;20032;-92
2024/04/08 04:45:13;;;;;;;10.65;7.47;;;14.70;99.90;;;;;;5065032;28;20573;-93
2024/04/08 04:47:39;;;;;;;17.13;6.50;;;14.70;99.90;;;;;;5066404;28;20107;-92
2024/04/08 04:50:05;;;;;;;7.35;5.13;;;14.60;99.90;;;;;;5056498;28;20088;-92
2024/04/08 04:52:33;;;;;;;16.33;5.70;;;14.60;99.90;;;;;;5074396;28;20017;-91
2024/04/08 04:54:58;;;;;;;11.07;6.93;;;14.50;99.90;;;;;;5055565;28;20037;-93
2024/04/08 04:57:24;;;;;;;19.40;6.47;;;14.40;99.90;;;;;;5066129;28;20031;-93
2024/04/08 04:59:50;;;;;;;10.63;5.95;;;14.40;99.90;;;;;;5063967;28;20078;-93
2024/04/08 05:02:15;;;;;;;8.07;5.30;;;14.30;99.90;;;;;;5045891;28;20147;-92
2024/04/08 05:04:43;;;;;;;13.32;5.95;;;14.20;99.90;;;;;;5064277;28;20029;-92
2024/04/08 05:07:09;;;;;;;13.27;6.13;;;14.20;99.90;;;;;;5048495;28;20084;-92
2024/04/08 05:09:34;;;;;;;12.77;6.82;;;14.10;99.90;;;;;;5063811;28;20036;-94
2024/04/08 05:12:00;;;;;;;11.35;5.80;;;14.00;99.90;;;;;;5063031;28;20058;-91
2024/04/08 05:14:25;;;;;;;15.32;8.60;;;14.10;99.90;;;;;;5065739;28;20515;-90
2024/04/08 05:16:51;;;;;;;12.65;7.25;;;14.00;99.90;;;;;;5066970;28;20021;-91
2024/04/08 05:19:17;;;;;;;17.80;8.18;;;14.10;99.90;;;;;;5075367;28;20463;-91
2024/04/08 05:21:43;;;;;;;16.30;9.77;;;14.10;99.90;;;;;;5065372;28;20089;-92
2024/04/08 05:24:10;;;;;;;12.30;7.05;;;14.10;99.90;;;;;;5060058;28;20029;-91
2024/04/08 05:26:36;;;;;;;15.35;6.63;;;14.10;99.90;;;;;;5051179;28;20080;-92
2024/04/08 05:29:02;;;;;;;12.25;6.22;;;14.10;99.90;;;;;;5062803;28;20033;-91
2024/04/08 05:31:27;;;;;;;8.93;5.95;;;14.10;99.90;;;;;;5061690;28;20025;-94
2024/04/08 05:33:53;;;;;;;15.25;7.70;;;14.20;99.90;;;;;;5061969;28;20114;-93
2024/04/08 05:36:19;;;;;;;15.98;7.55;;;14.20;99.90;;;;;;5067878;28;20048;-92
2024/04/08 05:38:44;;;;;;;10.05;6.30;;;14.20;99.90;;;;;;5063943;28;20087;-92
2024/04/08 05:41:10;;;;;;;10.30;5.13;;;14.20;99.90;;;;;;5063500;28;20045;-95
2024/04/08 05:43:35;;;;;;;11.18;5.90;;;14.20;99.90;;;;;;5064320;28;20089;-93
2024/04/08 05:46:02;;;;;;;8.38;5.57;;;14.20;99.90;;;;;;5069331;28;20029;-92
2024/04/08 05:48:28;;;;;;;12.50;7.50;;;14.30;99.90;;;;;;5065377;28;20056;-93
2024/04/08 05:50:54;;;;;;;9.98;5.90;;;14.30;99.90;;;;;;5070367;28;20045;-92
2024/04/08 05:53:20;;;;;;;9.20;4.95;;;14.30;99.90;;;;;;5042097;28;20208;-93
2024/04/08 05:55:46;;;;;;;11.38;4.75;;;14.30;99.90;;;;;;5042931;28;20061;-91
2024/04/08 05:58:12;;;;;;;13.75;6.70;;;14.20;99.90;;;;;;5048695;28;20032;-91
2024/04/08 06:00:39;;;;;;;13.38;5.78;;;14.30;99.90;;;;;;5051418;28;20025;-92
2024/04/08 06:03:06;;;;;;;9.38;4.65;;;14.30;99.90;;;;;;5047000;28;20040;-92
2024/04/08 06:05:32;;;;;;;16.50;7.03;;;14.20;99.90;;;;;;5045593;28;20037;-93
2024/04/08 06:07:58;;;;;;;9.00;5.13;;;14.20;99.90;;;;;;5053447;28;20033;-93
2024/04/08 06:10:30;;;;;;;9.25;4.93;;;14.10;99.90;;;;;;5051745;28;20025;-91
2024/04/08 06:12:57;;;;;;;10.13;6.13;;;14.10;99.90;;;;;;5049850;28;20083;-91
2024/04/08 06:15:23;;;;;;;8.18;5.35;;;14.20;99.90;;;;;;5050105;28;20029;-91
2024/04/08 06:17:48;;;;;;;11.10;5.18;;;14.30;99.90;;;;;;5055351;28;20093;-92
2024/04/08 06:20:14;;;;;;;11.25;5.30;;;14.30;99.90;;;;;;5049638;28;20025;-93
2024/04/08 06:22:40;;;;;;;10.73;5.47;;;14.40;99.90;;;;;;5032384;28;20033;-91
2024/04/08 06:25:06;;;;;;;12.10;5.70;;;14.40;99.90;;;;;;5060066;28;20017;-92
2024/04/08 06:27:32;;;;;;;8.60;5.03;;;14.50;99.90;;;;;;5062041;28;20039;-93
2024/04/08 06:29:58;;;;;;;12.07;5.63;;;14.50;99.90;;;;;;5066665;28;20032;-91
2024/04/08 06:32:24;;;;;;;9.88;6.20;;;14.70;99.90;;;;;;5059587;28;20041;-94
2024/04/08 06:34:49;;;;;;;9.35;5.45;;;14.70;99.90;;;;;;5071571;28;20043;-94
2024/04/08 06:37:15;;;;;;;23.95;8.32;;;14.80;99.90;;;;;;5066728;28;20047;-92
2024/04/08 06:39:42;;;;;;;15.15;5.70;;;14.90;99.90;;;;;;5071491;28;20013;-91
2024/04/08 06:42:17;;;;;;;10.93;6.30;;;15.00;99.90;;;;;;5055827;28;20017;-91
2024/04/08 06:44:50;;;;;;;12.85;6.32;;;15.00;99.90;;;;;;5071320;28;20018;-95
2024/04/08 06:47:15;;;;;;;14.10;6.60;;;15.10;99.90;;;;;;5068821;28;20032;-93
2024/04/08 06:49:42;;;;;;;10.52;5.88;;;15.20;99.90;;;;;;5068175;28;20033;-91
2024/04/08 06:52:08;;;;;;;9.63;6.47;;;15.40;99.90;;;;;;5067603;28;20021;-94
2024/04/08 06:54:33;;;;;;;15.30;6.38;;;15.50;98.60;;;;;;5051038;28;20074;-93
2024/04/08 06:56:59;;;;;;;10.35;5.45;;;15.70;97.20;;;;;;5068546;28;20025;-93
2024/04/08 06:59:25;;;;;;;21.33;7.00;;;15.80;96.10;;;;;;5050182;28;20057;-91
2024/04/08 07:01:51;;;;;;;14.50;5.50;;;15.90;93.80;;;;;;5063172;28;20020;-92
2024/04/08 07:04:19;;;;;;;22.77;5.68;;;16.10;93.40;;;;;;5068716;28;20025;-94
2024/04/08 07:06:46;;;;;;;9.57;5.53;;;16.10;92.20;;;;;;5071715;28;20036;-94
2024/04/08 07:09:13;;;;;;;8.85;4.57;;;16.20;91.10;;;;;;5079097;28;20021;-92
2024/04/08 07:11:42;;;;;;;11.90;5.38;;;16.30;92.30;;;;;;5079293;28;20017;-92
2024/04/08 07:14:11;;;;;;;8.02;4.75;;;16.40;92.30;;;;;;5154875;22;20052;-92
2024/04/08 07:16:44;;;;;;;13.63;5.32;;;16.50;90.70;;;;;;5068210;28;20032;-90
2024/04/08 07:19:12;;;;;;;21.73;5.30;;;16.60;88.80;;;;;;5076600;28;20025;-90
2024/04/08 07:21:38;;;;;;;5.72;4.50;;;16.70;87.50;;;;;;5077625;28;20120;-88
2024/04/08 07:24:05;;;;;;;8.45;4.30;;;16.90;86.50;;;;;;5086680;28;20024;-89
2024/04/08 07:26:32;;;;;;;11.30;4.25;;;17.00;86.40;;;;;;5085209;28;20041;-90
2024/04/08 07:28:58;;;;;;;6.38;3.80;;;17.10;84.80;;;;;;5053747;28;20096;-90
2024/04/08 07:31:24;;;;;;;7.55;3.90;;;17.10;83.10;;;;;;5061329;28;20059;-89
2024/04/08 07:33:49;;;;;;;8.73;3.58;;;17.30;83.50;;;;;;5080915;28;20028;-90
2024/04/08 07:36:15;;;;;;;12.88;4.68;;;17.30;82.90;;;;;;5067370;28;20032;-90
2024/04/08 07:38:41;;;;;;;10.00;3.60;;;17.50;83.50;;;;;;5073478;28;20095;-89
2024/04/08 07:41:09;;;;;;;8.50;3.08;;;17.60;80.90;;;;;;5064901;28;20069;-90
2024/04/08 07:43:36;;;;;;;6.82;3.03;;;17.70;80.50;;;;;;5069051;28;20063;-89
2024/04/08 07:46:03;;;;;;;;;;;17.90;79.80;;;;;;5081753;28;20547;-89
2024/04/08 07:48:29;;;;;;;;;;;18.00;78.00;;;;;;5065165;28;20362;-90
2024/04/08 07:50:56;;;;;;;10.27;3.75;;;18.20;79.50;;;;;;5073483;28;19962;-89
2024/04/08 07:53:22;;;;;;;11.13;3.80;;;18.30;80.10;;;;;;5063685;28;20021;-90
2024/04/08 07:55:47;;;;;;;12.40;3.33;;;18.50;77.40;;;;;;5068770;28;20025;-90
2024/04/08 07:58:13;;;;;;;7.22;3.83;;;18.60;76.20;;;;;;5063762;28;20493;-90
2024/04/08 08:00:39;;;;;;;13.38;3.58;;;18.60;73.30;;;;;;5081042;28;20023;-89
2024/04/08 08:03:05;;;;;;;25.45;3.88;;;18.80;69.40;;;;;;5060970;28;20028;-91
2024/04/08 08:05:31;;;;;;;8.73;3.55;;;18.90;69.10;;;;;;5061811;28;20375;-90
2024/04/08 08:07:59;;;;;;;7.03;2.60;;;19.10;66.80;;;;;;5072955;28;20028;-90
2024/04/08 08:10:26;;;;;;;3.30;1.50;;;19.20;66.10;;;;;;5072053;28;20036;-90
2024/04/08 08:12:51;;;;;;;9.68;3.30;;;19.30;61.20;;;;;;5060390;28;20088;-89
2024/04/08 08:15:21;;;;;;;6.95;2.30;;;19.50;60.30;;;;;;5062288;28;20075;-90
2024/04/08 08:17:49;;;;;;;10.48;2.20;;;19.70;58.90;;;;;;5061754;28;20110;-91
2024/04/08 08:20:15;;;;;;;6.63;1.52;;;19.70;54.70;;;;;;5077049;28;20055;-90
2024/04/08 08:22:41;;;;;;;8.65;1.48;;;20.00;53.10;;;;;;5081837;28;20050;-91
2024/04/08 08:25:09;;;;;;;9.40;2.88;;;20.10;52.70;;;;;;5081124;28;20025;-90
2024/04/08 08:27:37;;;;;;;6.80;1.88;;;20.40;50.80;;;;;;5067888;28;20128;-92
2024/04/08 08:30:03;;;;;;;5.80;1.60;;;20.50;49.20;;;;;;5073926;28;20029;-91
2024/04/08 08:32:28;;;;;;;9.13;2.92;;;20.60;49.00;;;;;;5061419;28;20035;-93
2024/04/08 08:34:54;;;;;;;9.35;2.50;;;20.80;48.60;;;;;;5060358;28;20036;-93
2024/04/08 08:37:20;;;;;;;8.00;1.92;;;20.90;49.00;;;;;;5073463;28;20029;-92
2024/04/08 08:39:50;;;;;;;6.60;1.98;;;21.00;47.70;;;;;;5079942;28;20016;-93
2024/04/08 08:42:21;;;;;;;3.05;1.63;;;21.10;47.10;;;;;;5079224;28;20025;-92
2024/04/08 08:44:52;;;;;;;10.65;2.38;;;21.20;47.90;;;;;;5078710;28;20040;-92
2024/04/08 08:47:21;;;;;;;6.15;2.95;;;21.40;46.80;;;;;;5079538;28;20066;-93
2024/04/08 08:49:50;;;;;;;8.35;2.72;;;21.40;45.70;;;;;;5079191;28;20048;-93
2024/04/08 08:52:16;;;;;;;6.78;1.88;;;21.60;46.60;;;;;;5079177;28;20051;-92
2024/04/08 08:54:42;;;;;;;13.00;2.78;;;21.70;46.70;;;;;;5075810;28;20021;-92
2024/04/08 08:57:09;;;;;;;4.47;2.22;;;21.80;46.90;;;;;;5079218;28;20024;-92
2024/04/08 08:59:35;;;;;;;7.07;2.08;;;22.00;44.10;;;;;;5074732;28;20033;-93
2024/04/08 09:02:01;;;;;;;6.95;2.20;;;21.90;44.90;;;;;;5063173;28;20025;-93
2024/04/08 09:04:27;;;;;;;4.10;1.27;;;21.90;42.20;;;;;;5081155;28;20031;-92
2024/04/08 09:06:54;;;;;;;7.35;1.33;;;21.90;43.00;;;;;;5071444;28;20037;-93
2024/04/08 09:09:26;;;;;;;7.65;2.30;;;22.00;42.20;;;;;;5075361;28;20017;-93
2024/04/08 09:11:54;;;;;;;3.95;1.75;;;22.10;41.50;;;;;;5079484;28;20123;-92
2024/04/08 09:14:20;;;;;;;7.75;1.70;;;22.20;41.50;;;;;;5067049;28;20033;-92
2024/04/08 09:17:30;;;;;;;10.10;2.40;;;22.30;39.60;;;;;;5063515;28;20081;-92
2024/04/08 09:19:57;;;;;;;4.55;1.70;;;22.50;40.50;;;;;;5064689;28;20029;-92
2024/04/08 09:22:26;;;;;;;8.35;1.50;;;22.50;39.40;;;;;;5091338;28;20024;-93
2024/04/08 09:24:52;;;;;;;5.32;1.33;;;22.70;40.80;;;;;;5064969;28;20116;-92
2024/04/08 09:27:18;;;;;;;6.68;1.35;;;22.90;39.60;;;;;;5082212;28;20126;-91
2024/04/08 09:29:44;;;;;;;6.13;1.60;;;22.70;38.70;;;;;;5063272;28;20032;-92
2024/04/08 09:32:10;;;;;;;7.18;2.65;;;23.00;40.80;;;;;;5080623;28;20029;-89
2024/04/08 09:34:36;;;;;;;10.80;2.17;;;23.20;39.90;;;;;;5064776;28;20044;-88
2024/04/08 09:37:08;;;;;;;6.40;1.48;;;23.30;38.30;;;;;;5064979;28;20100;-92
2024/04/08 09:39:37;;;;;;;12.00;2.42;;;23.40;37.80;;;;;;5061789;28;20028;-91
2024/04/08 09:42:12;;;;;;;6.15;1.33;;;23.20;38.50;;;;;;5072587;28;20096;-91
2024/04/08 09:44:38;;;;;;;10.02;1.48;;;23.40;39.00;;;;;;5064223;28;20036;-91
2024/04/08 09:47:06;;;;;;;4.32;1.73;;;23.70;39.70;;;;;;5081478;28;20033;-90
2024/04/08 09:49:33;;;;;;;11.68;2.05;;;23.80;39.00;;;;;;5059247;28;20024;-91
2024/04/08 09:52:01;;;;;;;7.13;1.55;;;23.80;37.70;;;;;;5059088;28;20021;-92
2024/04/08 09:54:27;;;;;;;10.45;2.08;;;23.80;38.80;;;;;;5059476;28;20025;-90
2024/04/08 09:56:58;;;;;;;7.38;1.48;;;24.00;38.10;;;;;;5071269;28;20025;-91
2024/04/08 09:59:24;;;;;;;5.55;1.40;;;24.10;37.40;;;;;;5055590;28;20442;-89
2024/04/08 10:01:54;;;;;;;5.35;1.42;;;24.00;36.80;;;;;;5058933;28;20491;-92
2024/04/08 10:04:22;;;;;;;7.50;1.83;;;24.00;36.60;;;;;;5071942;28;20041;-91
2024/04/08 10:06:49;;;;;;;7.03;1.73;;;24.30;36.20;;;;;;5058392;28;20394;-91
2024/04/08 10:09:16;;;;;;;3.35;1.40;;;24.60;35.20;;;;;;5064686;28;20025;-92
2024/04/08 10:12:02;;;;;;;7.35;1.67;;;24.20;36.90;;;;;;5069135;28;20074;-89
2024/04/08 10:14:49;;;;;;;3.50;1.45;;;24.00;37.00;;;;;;5078354;28;20037;-91
2024/04/08 10:17:35;;;;;;;10.98;1.63;;;24.00;35.90;;;;;;5066304;28;20021;-90
2024/04/08 10:20:32;;;;;;;;;;;;;;;;;;;;;
2024/04/08 10:23:19;;;;;;;9.18;1.70;;;24.50;36.00;;;;;;5084676;28;20064;-90
2024/04/08 10:25:47;;;;;;;7.45;1.58;;;24.60;36.80;;;;;;5083639;28;20037;-92
2024/04/08 10:28:30;;;;;;;;;;;;;;;;;;;;;
2024/04/08 10:31:49;;;;;;;5.78;1.33;;;24.40;36.60;;;;;;5074493;28;20048;-91
2024/04/08 10:34:15;;;;;;;4.90;1.35;;;24.50;37.40;;;;;;5053295;28;20036;-92
2024/04/08 10:36:41;;;;;;;7.53;2.22;;;24.50;37.60;;;;;;5065374;28;20035;-93
2024/04/08 10:39:09;;;;;;;7.47;1.73;;;24.40;37.20;;;;;;5087141;28;20028;-93
2024/04/08 10:41:34;;;;;;;9.50;1.98;;;24.20;38.60;;;;;;5066643;28;20025;-93
2024/04/08 10:44:04;;;;;;;9.25;2.35;;;24.30;39.70;;;;;;5067331;28;20032;-93
2024/04/08 10:46:30;;;;;;;6.03;1.83;;;23.90;39.70;;;;;;5068853;28;20024;-92
2024/04/08 10:49:08;;;;;;;6.60;1.67;;;23.90;40.50;;;;;;5077080;28;20606;-91
2024/04/08 10:51:40;;;;;;;8.27;1.75;;;23.60;41.40;;;;;;5090673;28;20053;-93
2024/04/08 10:54:06;;;;;;;8.68;1.50;;;23.60;41.00;;;;;;5067031;28;20483;-93
2024/04/08 10:56:33;;;;;;;6.65;1.52;;;23.30;41.30;;;;;;5063101;28;20444;-94
2024/04/08 10:58:59;;;;;;;;;;;23.10;41.80;;;;;;5079604;28;20501;-92
2024/04/08 11:01:25;;;;;;;10.70;2.00;;;23.00;43.10;;;;;;5063296;28;19912;-93
2024/04/08 11:03:59;;;;;;;8.90;2.05;;;22.90;41.90;;;;;;5083642;28;20021;-92
2024/04/08 11:06:25;;;;;;;5.70;1.83;;;22.90;41.80;;;;;;5055263;28;20033;-94
2024/04/08 11:08:51;;;;;;;7.38;1.83;;;23.00;42.40;;;;;;5064914;28;20027;-93
2024/04/08 11:11:16;;;;;;;8.65;2.03;;;23.20;40.40;;;;;;5072064;28;20485;-93
2024/04/08 11:16:42;;;;;;;5.22;1.13;;;23.90;39.30;;;;;;4988342;28;20039;-91
2024/04/08 11:19:13;;;;;;;6.90;1.92;;;24.30;37.10;;;;;;5049406;28;20083;-95
2024/04/08 11:21:39;;;;;;;8.80;2.17;;;24.50;36.00;;;;;;5061935;28;20028;-92
2024/04/08 11:24:26;;;;;;;5.40;1.27;;;24.40;36.40;;;;;;5067035;28;20031;-89
2024/04/08 11:26:55;;;;;;;12.15;1.50;;;24.30;37.20;;;;;;5067031;28;20044;-91
2024/04/08 11:29:22;;;;;;;5.32;1.80;;;24.30;36.30;;;;;;5067335;28;20031;-92
2024/04/08 11:31:47;;;;;;;8.02;1.63;;;24.20;36.30;;;;;;5082254;28;20044;-93
2024/04/08 11:34:23;;;;;;;6.95;1.60;;;24.30;37.70;;;;;;5064437;28;20029;-93
2024/04/08 11:36:48;;;;;;;5.05;2.25;;;24.40;35.30;;;;;;5070969;28;20498;-92
2024/04/08 11:39:14;;;;;;;7.22;1.92;;;24.90;35.00;;;;;;5053492;28;20029;-92
2024/04/08 11:41:43;;;;;;;6.38;1.52;;;25.50;35.70;;;;;;5065588;28;20028;-93
2024/04/08 11:44:10;;;;;;;4.43;1.55;;;25.80;33.80;;;;;;5067542;28;20025;-93
2024/04/08 11:46:39;;;;;;;6.30;1.38;;;25.80;34.30;;;;;;5088327;28;20036;-93
2024/04/08 11:49:11;;;;;;;9.40;1.58;;;26.00;34.20;;;;;;5079859;28;20092;-93
2024/04/08 11:51:40;;;;;;;6.40;1.70;;;26.20;35.40;;;;;;5064145;28;20633;-93
2024/04/08 11:54:07;;;;;;;6.18;2.22;;;26.20;35.00;;;;;;5071890;28;20020;-93
2024/04/08 11:56:32;;;;;;;7.60;1.58;;;25.60;34.90;;;;;;5069717;28;20159;-93
2024/04/08 11:59:30;;;;;;;5.82;1.55;;;25.60;36.30;;;;;;5072726;28;20013;-93
2024/04/08 12:02:29;;;;;;;3.90;2.10;;;26.10;35.30;;;;;;5086911;28;20086;-92
2024/04/08 12:05:24;;;;;;;;;;;26.70;33.60;;;;;;5082152;28;20036;-93
2024/04/08 12:08:01;;;;;;;5.72;1.60;;;26.70;32.10;;;;;;5066292;28;19947;-93
2024/04/08 12:10:35;;;;;;;19.33;2.20;;;26.80;33.10;;;;;;5064868;28;20025;-93
2024/04/08 12:16:23;;;;;;;13.43;2.75;;;26.80;32.10;;;;;;5023788;28;20037;-93
2024/04/08 12:19:00;;;;;;;5.22;1.45;;;26.90;31.40;;;;;;5074359;28;20037;-92
2024/04/08 12:21:26;;;;;;;5.40;1.27;;;27.00;32.70;;;;;;5084513;28;20035;-93
2024/04/08 12:23:55;;;;;;;6.68;1.83;;;27.30;30.70;;;;;;5082472;28;20025;-94
2024/04/08 12:26:20;;;;;;;8.93;2.60;;;27.80;29.90;;;;;;5074372;28;20032;-93
2024/04/08 12:28:46;;;;;;;4.80;1.80;;;28.00;29.70;;;;;;5063810;28;20050;-92
2024/04/08 12:31:13;;;;;;;6.25;1.42;;;27.90;27.60;;;;;;5056956;28;20032;-94
2024/04/08 12:33:43;;;;;;;5.18;1.63;;;28.00;28.80;;;;;;5082909;28;20076;-93
2024/04/08 12:36:16;;;;;;;7.70;1.45;;;27.70;29.10;;;;;;5086246;28;20055;-93
2024/04/08 12:38:55;;;;;;;7.88;1.55;;;27.30;28.80;;;;;;5058585;28;20069;-94
2024/04/08 12:41:38;;;;;;;7.10;1.92;;;28.20;29.70;;;;;;5059209;28;20032;-94
2024/04/08 12:44:04;;;;;;;8.13;1.83;;;28.60;26.70;;;;;;5070693;28;20029;-92
2024/04/08 12:46:39;;;;;;;8.43;1.88;;;29.10;26.80;;;;;;5050453;28;20025;-92
2024/04/08 12:49:30;;;;;;;5.50;1.00;;;28.90;25.90;;;;;;5068453;28;20079;-94
2024/04/08 12:51:57;;;;;;;10.30;2.33;;;29.00;27.20;;;;;;5046424;28;20041;-93
2024/04/08 12:57:46;;;;;;;5.25;1.20;;;28.70;25.90;;;;;;5056772;28;20378;-92
2024/04/08 13:00:12;;;;;;;6.97;1.95;;;28.80;25.90;;;;;;5081983;28;20024;-93